Tiffany, Colorado
Current Conditions -  °F | °C
As of 4:53 PM on Wednesday 22 Oct 2014 (Local Time) from KDRO Reporting Station
Clear Clear  
Wind Chill: 62°   Ceiling: Unl
Heat Index: 62°   Visibility: 10mi
Dew Point: 41°   Wind: 9mph
Humidity: 46%   Direction: 210°SSW
Pressure: 30.19"   Gusts: NA
Location:  37.0891°N, 107.649°W
Report Text: KDRO 222253Z AUTO 21008KT 10SM CLR 17/05 A3019 RMK AO2 SLP184 T01670050
Loading
Personal Weather Stations






























Interactive Weather Map
Tropical Storm Tracking
New forecast layout! Learn more

10-Day Weather Forecast

Advertisements
Track Severe Weather on mobile